Cornishville, Kentucky
Current Conditions -  °F | °C
As of 11:55 PM on Saturday 25 Oct 2014 (Local Time) from KDVK Reporting Station
Clear Clear  
Wind Chill: 61°   Ceiling: Unl
Heat Index: 61°   Visibility: 10mi
Dew Point: 55°   Wind: 3mph
Humidity: 82%   Direction: 270°W
Pressure: 30"   Gusts: NA
Location:  37.7856°N, 84.8966°W
Report Text: KDVK 260355Z AUTO 27003KT 10SM CLR 16/13 A3000 RMK AO2
Loading
Personal Weather Stations






























Interactive Weather Map
Tropical Storm Tracking
New forecast layout! Learn more

10-Day Weather Forecast

Advertisements
Track Severe Weather on mobile